createdAt,value
2023-02-07T00:01:23.842Z,99621.00
2023-02-07T00:03:51.322Z,99626.00
2023-02-07T00:06:34.081Z,99619.00
2023-02-07T00:09:04.028Z,99622.00
2023-02-07T00:11:30.404Z,99612.00
2023-02-07T00:13:58.678Z,99612.00
2023-02-07T00:16:26.072Z,99615.00
2023-02-07T00:18:53.145Z,99629.00
2023-02-07T00:21:25.035Z,99626.00
2023-02-07T00:23:53.270Z,99621.00
2023-02-07T00:26:22.810Z,99631.00
2023-02-07T00:28:51.891Z,99619.00
2023-02-07T00:31:22.725Z,99628.00
2023-02-07T00:33:53.069Z,99611.00
2023-02-07T00:36:22.519Z,99598.00
2023-02-07T00:38:49.836Z,99615.00
2023-02-07T00:41:17.850Z,99629.00
2023-02-07T00:43:46.257Z,99601.00
2023-02-07T00:46:12.928Z,99615.00
2023-02-07T00:48:39.482Z,99634.00
2023-02-07T00:51:09.018Z,99612.00
2023-02-07T00:53:35.594Z,99593.00
2023-02-07T00:56:02.018Z,99600.00
2023-02-07T00:58:29.536Z,99603.00
2023-02-07T01:00:55.780Z,99607.00
2023-02-07T01:03:21.992Z,99597.00
2023-02-07T01:05:48.276Z,99599.00
2023-02-07T01:08:15.022Z,99625.00
2023-02-07T01:10:44.271Z,99612.00
2023-02-07T01:13:13.075Z,99592.00
2023-02-07T01:15:43.516Z,99621.00
2023-02-07T01:18:10.897Z,99621.00
2023-02-07T01:20:37.269Z,99603.00
2023-02-07T01:23:05.181Z,99584.00
2023-02-07T01:25:32.294Z,99614.00
2023-02-07T01:27:58.631Z,99602.00
2023-02-07T01:30:24.846Z,99599.00
2023-02-07T01:32:51.037Z,99587.00
2023-02-07T01:35:17.474Z,99600.00
2023-02-07T01:37:43.641Z,99595.00
2023-02-07T01:40:12.138Z,99603.00
2023-02-07T01:42:38.604Z,99571.00
2023-02-07T01:45:21.599Z,99593.00
2023-02-07T01:47:48.033Z,99579.00
2023-02-07T01:50:16.619Z,99576.00
2023-02-07T01:52:44.154Z,99592.00
2023-02-07T01:55:17.405Z,99583.00
2023-02-07T01:57:44.733Z,99582.00
2023-02-07T02:00:15.547Z,99577.00
2023-02-07T02:02:43.018Z,99588.00
2023-02-07T02:05:11.427Z,99578.00
2023-02-07T02:07:39.758Z,99560.00
2023-02-07T02:10:47.434Z,99565.00
2023-02-07T02:13:54.912Z,99580.00
2023-02-07T02:16:35.484Z,99594.00
2023-02-07T02:19:43.779Z,99577.00
2023-02-07T02:22:54.839Z,99568.00
2023-02-07T02:25:24.122Z,99579.00
2023-02-07T02:28:26.129Z,99568.00
2023-02-07T02:31:19.519Z,99572.00
2023-02-07T02:34:08.769Z,99578.00
2023-02-07T02:37:00.405Z,99581.00
2023-02-07T02:40:04.148Z,99573.00
2023-02-07T02:42:49.976Z,99585.00
2023-02-07T02:45:28.109Z,99576.00
2023-02-07T02:47:55.416Z,99567.00
2023-02-07T02:50:30.172Z,99576.00
2023-02-07T02:52:57.130Z,99571.00
2023-02-07T02:55:46.701Z,99549.00
2023-02-07T02:58:47.521Z,99566.00
2023-02-07T03:01:18.867Z,99565.00
2023-02-07T03:04:45.688Z,99560.00
2023-02-07T03:07:48.707Z,99557.00
2023-02-07T03:10:59.209Z,99541.00
2023-02-07T03:13:35.407Z,99544.00
2023-02-07T03:16:50.217Z,99539.00
2023-02-07T03:19:26.784Z,99547.00
2023-02-07T03:22:04.956Z,99524.00
2023-02-07T03:24:37.330Z,99551.00
2023-02-07T03:27:10.565Z,99537.00
2023-02-07T03:29:42.377Z,99546.00
2023-02-07T03:32:13.188Z,99540.00
2023-02-07T03:35:03.300Z,99546.00
2023-02-07T03:37:47.378Z,99537.00
2023-02-07T03:40:15.252Z,99541.00
2023-02-07T03:42:56.568Z,99541.00
2023-02-07T03:45:23.340Z,99526.00
2023-02-07T03:47:49.660Z,99543.00
2023-02-07T03:50:17.061Z,99531.00
2023-02-07T03:52:43.425Z,99533.00
2023-02-07T03:55:10.107Z,99543.00
2023-02-07T03:57:36.790Z,99546.00
2023-02-07T04:00:04.943Z,99542.00
2023-02-07T04:02:39.098Z,99537.00
2023-02-07T04:05:06.083Z,99537.00
2023-02-07T04:07:32.400Z,99528.00
2023-02-07T04:09:58.632Z,99538.00
2023-02-07T04:12:31.861Z,99530.00
2023-02-07T04:15:05.042Z,99530.00
2023-02-07T04:17:31.905Z,99556.00
2023-02-07T04:20:00.689Z,99540.00
2023-02-07T04:22:28.346Z,99531.00
2023-02-07T04:24:54.653Z,99544.00
2023-02-07T04:27:20.818Z,99540.00
2023-02-07T04:29:47.149Z,99550.00
2023-02-07T04:32:13.462Z,99538.00
2023-02-07T04:34:39.750Z,99553.00
2023-02-07T04:37:05.994Z,99569.00
2023-02-07T04:39:32.230Z,99566.00
2023-02-07T04:41:58.428Z,99566.00
2023-02-07T04:44:24.593Z,99566.00
2023-02-07T04:46:51.137Z,99531.00
2023-02-07T04:49:17.294Z,99533.00
2023-02-07T04:51:43.636Z,99549.00
2023-02-07T04:54:10.456Z,99545.00
2023-02-07T04:56:36.693Z,99569.00
2023-02-07T04:59:03.196Z,99576.00
2023-02-07T05:01:29.463Z,99543.00
2023-02-07T05:03:55.773Z,99555.00
2023-02-07T05:06:22.042Z,99572.00
2023-02-07T05:08:48.271Z,99556.00
2023-02-07T05:11:14.752Z,99566.00
2023-02-07T05:13:40.978Z,99554.00
2023-02-07T05:16:07.392Z,99549.00
2023-02-07T05:18:33.648Z,99561.00
2023-02-07T05:21:00.029Z,99570.00
2023-02-07T05:23:26.504Z,99581.00
2023-02-07T05:25:52.753Z,99550.00
2023-02-07T05:28:19.416Z,99569.00
2023-02-07T05:30:45.686Z,99570.00
2023-02-07T05:33:11.966Z,99548.00
2023-02-07T05:35:42.897Z,99562.00
2023-02-07T05:38:13.807Z,99567.00
2023-02-07T05:40:41.878Z,99547.00
2023-02-07T05:43:09.788Z,99571.00
2023-02-07T05:45:36.550Z,99554.00
2023-02-07T05:48:04.152Z,99574.00
2023-02-07T05:50:30.835Z,99579.00
2023-02-07T05:53:10.021Z,99588.00
2023-02-07T05:55:36.634Z,99597.00
2023-02-07T05:58:03.159Z,99612.00
2023-02-07T06:00:29.901Z,99606.00
2023-02-07T06:02:56.232Z,99595.00
2023-02-07T06:05:24.205Z,99616.00
2023-02-07T06:07:51.234Z,99608.00
2023-02-07T06:10:17.631Z,99626.00
2023-02-07T06:12:43.953Z,99615.00
2023-02-07T06:15:10.414Z,99625.00
2023-02-07T06:17:36.737Z,99620.00
2023-02-07T06:20:05.033Z,99626.00
2023-02-07T06:22:31.365Z,99615.00
2023-02-07T06:24:57.717Z,99623.00
2023-02-07T06:27:23.932Z,99600.00
2023-02-07T06:29:52.944Z,99621.00
2023-02-07T06:32:19.168Z,99610.00
2023-02-07T06:34:45.397Z,99599.00
2023-02-07T06:37:11.837Z,99608.00
2023-02-07T06:39:39.037Z,99608.00
2023-02-07T06:42:05.334Z,99626.00
2023-02-07T06:44:31.497Z,99621.00
2023-02-07T06:46:57.623Z,99602.00
2023-02-07T06:49:23.936Z,99616.00
2023-02-07T06:51:50.608Z,99621.00
2023-02-07T06:54:16.775Z,99597.00
2023-02-07T06:56:43.214Z,99612.00
2023-02-07T06:59:09.527Z,99627.00
2023-02-07T07:01:35.842Z,99610.00
2023-02-07T07:04:02.069Z,99620.00
2023-02-07T07:06:28.265Z,99634.00
2023-02-07T07:08:54.911Z,99629.00
2023-02-07T07:11:21.076Z,99637.00
2023-02-07T07:13:47.305Z,99637.00
2023-02-07T07:16:13.819Z,99657.00
2023-02-07T07:18:40.683Z,99629.00
2023-02-07T07:21:07.640Z,99639.00
2023-02-07T07:23:34.082Z,99589.00
2023-02-07T07:26:00.436Z,99636.00
2023-02-07T07:28:26.729Z,99623.00
2023-02-07T07:30:53.135Z,99638.00
2023-02-07T07:33:19.576Z,99635.00
2023-02-07T07:35:45.738Z,99634.00
2023-02-07T07:38:12.083Z,99617.00
2023-02-07T07:40:38.369Z,99624.00
2023-02-07T07:43:05.232Z,99633.00
2023-02-07T07:45:42.756Z,99646.00
2023-02-07T07:48:08.973Z,99638.00
2023-02-07T07:50:35.157Z,99646.00
2023-02-07T07:53:01.315Z,99620.00
2023-02-07T07:55:27.496Z,99628.00
2023-02-07T07:57:53.723Z,99616.00
2023-02-07T08:00:20.085Z,99628.00
2023-02-07T08:02:46.333Z,99639.00
2023-02-07T08:05:13.830Z,99650.00
2023-02-07T08:07:40.547Z,99666.00
2023-02-07T08:10:07.315Z,99634.00
2023-02-07T08:12:33.862Z,99676.00
2023-02-07T08:15:00.098Z,99663.00
2023-02-07T08:17:26.296Z,99640.00
2023-02-07T08:19:52.635Z,99674.00
2023-02-07T08:22:18.964Z,99652.00
2023-02-07T08:24:45.233Z,99678.00
2023-02-07T08:27:11.733Z,99641.00
2023-02-07T08:29:37.901Z,99657.00
2023-02-07T08:32:04.735Z,99650.00
2023-02-07T08:34:36.372Z,99666.00
2023-02-07T08:37:06.339Z,99664.00
2023-02-07T08:39:36.883Z,99677.00
2023-02-07T08:42:07.511Z,99658.00
2023-02-07T08:44:35.235Z,99665.00
2023-02-07T08:47:02.325Z,99669.00
2023-02-07T08:49:28.543Z,99658.00
2023-02-07T08:51:54.723Z,99676.00
2023-02-07T08:54:20.932Z,99673.00
2023-02-07T08:56:48.067Z,99672.00
2023-02-07T08:59:14.686Z,99673.00
2023-02-07T09:01:40.823Z,99674.00
2023-02-07T09:04:07.667Z,99669.00
2023-02-07T09:06:33.808Z,99642.00
2023-02-07T09:08:59.934Z,99665.00
2023-02-07T09:11:26.172Z,99660.00
2023-02-07T09:13:52.351Z,99667.00
2023-02-07T09:16:18.676Z,99646.00
2023-02-07T09:18:45.046Z,99640.00
2023-02-07T09:21:11.208Z,99668.00
2023-02-07T09:23:37.351Z,99637.00
2023-02-07T09:26:06.520Z,99649.00
2023-02-07T09:28:33.242Z,99621.00
2023-02-07T09:30:59.555Z,99631.00
2023-02-07T09:33:25.858Z,99644.00
2023-02-07T09:35:53.887Z,99631.00
2023-02-07T09:38:24.818Z,99643.00
2023-02-07T09:40:54.112Z,99650.00
2023-02-07T09:43:58.134Z,99639.00
2023-02-07T09:47:17.644Z,99643.00
2023-02-07T09:50:10.308Z,99641.00
2023-02-07T09:52:51.470Z,99631.00
2023-02-07T09:55:31.905Z,99634.00
2023-02-07T09:58:08.302Z,99636.00
2023-02-07T10:00:37.297Z,99635.00
2023-02-07T10:03:19.056Z,99640.00
2023-02-07T10:06:16.241Z,99644.00
2023-02-07T10:09:02.179Z,99659.00
2023-02-07T10:12:06.683Z,99657.00
2023-02-07T10:15:06.206Z,99646.00
2023-02-07T10:17:45.659Z,99646.00
2023-02-07T10:20:28.399Z,99629.00
2023-02-07T10:23:36.111Z,99635.00
2023-02-07T10:26:55.880Z,99643.00
2023-02-07T10:29:48.192Z,99612.00
2023-02-07T10:32:25.128Z,99630.00
2023-02-07T10:35:02.508Z,99626.00
2023-02-07T10:37:37.155Z,99620.00
2023-02-07T10:40:32.456Z,99630.00
2023-02-07T10:43:08.133Z,99623.00
2023-02-07T10:45:34.429Z,99630.00
2023-02-07T10:48:00.749Z,99611.00
2023-02-07T10:50:30.950Z,99614.00
2023-02-07T10:52:58.622Z,99620.00
2023-02-07T10:55:42.530Z,99615.00
2023-02-07T10:58:24.050Z,99630.00
2023-02-07T11:00:54.927Z,99634.00
2023-02-07T11:03:24.631Z,99621.00
2023-02-07T11:05:58.943Z,99640.00
2023-02-07T11:08:31.986Z,99626.00
2023-02-07T11:11:20.080Z,99629.00
2023-02-07T11:13:50.976Z,99618.00
2023-02-07T11:16:22.031Z,99610.00
2023-02-07T11:19:06.507Z,99630.00
2023-02-07T11:21:32.978Z,99627.00
2023-02-07T11:24:26.745Z,99627.00
2023-02-07T11:27:12.070Z,99628.00
2023-02-07T11:29:54.479Z,99627.00
2023-02-07T11:32:24.629Z,99638.00
2023-02-07T11:34:57.338Z,99649.00
2023-02-07T11:37:46.777Z,99647.00
2023-02-07T11:40:19.020Z,99652.00
2023-02-07T11:42:56.728Z,99625.00
2023-02-07T11:45:23.846Z,99611.00
2023-02-07T11:47:56.448Z,99624.00
2023-02-07T11:50:43.037Z,99613.00
2023-02-07T11:53:50.775Z,99645.00
2023-02-07T11:56:30.477Z,99636.00
2023-02-07T11:58:58.404Z,99632.00
2023-02-07T12:01:31.852Z,99629.00
2023-02-07T12:04:18.561Z,99620.00
2023-02-07T12:06:58.735Z,99627.00
2023-02-07T12:09:53.839Z,99600.00
2023-02-07T12:12:47.026Z,99597.00
2023-02-07T12:15:27.671Z,99601.00
2023-02-07T12:18:20.913Z,99631.00
2023-02-07T12:21:04.651Z,99614.00
2023-02-07T12:23:55.008Z,99605.00
2023-02-07T12:26:23.201Z,99613.00
2023-02-07T12:29:37.636Z,99600.00
2023-02-07T12:32:13.475Z,99607.00
2023-02-07T12:35:05.099Z,99599.00
2023-02-07T12:37:46.183Z,99601.00
2023-02-07T12:40:18.200Z,99607.00
2023-02-07T12:43:00.907Z,99602.00
2023-02-07T12:46:02.564Z,99601.00
2023-02-07T12:49:16.384Z,99591.00
2023-02-07T12:52:16.175Z,99573.00
2023-02-07T12:55:00.381Z,99575.00
2023-02-07T12:58:04.670Z,99583.00
2023-02-07T13:01:08.221Z,99572.00
2023-02-07T13:04:10.837Z,99591.00
2023-02-07T13:07:00.291Z,99588.00
2023-02-07T13:10:00.010Z,99582.00
2023-02-07T13:12:59.744Z,99583.00
2023-02-07T13:15:40.969Z,99578.00
2023-02-07T13:18:25.371Z,99583.00
2023-02-07T13:21:27.525Z,99601.00
2023-02-07T13:24:00.748Z,99578.00
2023-02-07T13:26:28.443Z,99589.00
2023-02-07T13:29:13.777Z,99583.00
2023-02-07T13:31:44.649Z,99583.00
2023-02-07T13:34:18.271Z,99592.00
2023-02-07T13:36:50.824Z,99581.00
2023-02-07T13:39:56.232Z,99575.00
2023-02-07T13:42:51.123Z,99582.00
2023-02-07T13:45:58.259Z,99587.00
2023-02-07T13:48:50.480Z,99581.00
2023-02-07T13:51:23.914Z,99566.00
2023-02-07T13:54:15.581Z,99588.00
2023-02-07T13:57:16.591Z,99579.00
2023-02-07T14:00:03.494Z,99575.00
2023-02-07T14:02:55.437Z,99574.00
2023-02-07T14:05:39.421Z,99593.00
2023-02-07T14:08:18.004Z,99582.00
2023-02-07T14:10:56.566Z,99603.00
2023-02-07T14:13:25.625Z,99594.00
2023-02-07T14:16:02.340Z,99586.00
2023-02-07T14:18:54.962Z,99590.00
2023-02-07T14:21:28.148Z,99581.00
2023-02-07T14:24:09.694Z,99574.00
2023-02-07T14:26:38.980Z,99594.00
2023-02-07T14:29:23.264Z,99587.00
2023-02-07T14:32:20.762Z,99583.00
2023-02-07T14:35:25.954Z,99590.00
2023-02-07T14:38:06.009Z,99576.00
2023-02-07T14:41:08.466Z,99565.00
2023-02-07T14:43:59.738Z,99584.00
2023-02-07T14:46:38.863Z,99576.00
2023-02-07T14:49:26.448Z,99570.00
2023-02-07T14:51:59.921Z,99570.00
2023-02-07T14:54:42.048Z,99578.00
2023-02-07T14:57:33.572Z,99557.00
2023-02-07T15:00:11.820Z,99569.00
2023-02-07T15:02:51.273Z,99569.00
2023-02-07T15:05:34.647Z,99551.00
2023-02-07T15:08:05.449Z,99573.00
2023-02-07T15:10:39.414Z,99575.00
2023-02-07T15:13:20.160Z,99554.00
2023-02-07T15:16:04.970Z,99566.00
2023-02-07T15:18:39.612Z,99566.00
2023-02-07T15:21:10.241Z,99555.00
2023-02-07T15:23:36.442Z,99570.00
2023-02-07T15:26:08.055Z,99569.00
2023-02-07T15:28:34.880Z,99570.00
2023-02-07T15:31:12.526Z,99556.00
2023-02-07T15:34:10.692Z,99555.00
2023-02-07T15:36:41.610Z,99534.00
2023-02-07T15:39:14.157Z,99564.00
2023-02-07T15:41:40.635Z,99566.00
2023-02-07T15:44:26.443Z,99570.00
2023-02-07T15:47:05.477Z,99580.00
2023-02-07T15:49:35.740Z,99587.00
2023-02-07T15:52:27.670Z,99574.00
2023-02-07T15:54:55.745Z,99581.00
2023-02-07T15:57:42.010Z,99569.00
2023-02-07T16:00:28.754Z,99584.00
2023-02-07T16:03:03.713Z,99587.00
2023-02-07T16:05:40.935Z,99570.00
2023-02-07T16:08:31.555Z,99574.00
2023-02-07T16:11:25.677Z,99584.00
2023-02-07T16:14:22.632Z,99584.00
2023-02-07T16:16:55.504Z,99588.00
2023-02-07T16:19:32.325Z,99574.00
2023-02-07T16:22:06.594Z,99564.00
2023-02-07T16:24:37.268Z,99556.00
2023-02-07T16:27:05.363Z,99567.00
2023-02-07T16:29:35.122Z,99589.00
2023-02-07T16:32:01.523Z,99583.00
2023-02-07T16:34:27.821Z,99563.00
2023-02-07T16:36:56.149Z,99579.00
2023-02-07T16:39:22.600Z,99574.00
2023-02-07T16:41:55.485Z,99563.00
2023-02-07T16:44:27.862Z,99592.00
2023-02-07T16:46:54.145Z,99597.00
2023-02-07T16:49:26.368Z,99595.00
2023-02-07T16:51:53.399Z,99582.00
2023-02-07T16:54:20.377Z,99601.00
2023-02-07T16:56:51.822Z,99584.00
2023-02-07T16:59:21.044Z,99595.00
2023-02-07T17:01:49.922Z,99608.00
2023-02-07T17:04:16.923Z,99604.00
2023-02-07T17:06:44.892Z,99601.00
2023-02-07T17:09:24.691Z,99599.00
2023-02-07T17:11:53.970Z,99615.00
2023-02-07T17:14:21.198Z,99618.00
2023-02-07T17:16:48.971Z,99615.00
2023-02-07T17:19:19.337Z,99624.00
2023-02-07T17:21:46.898Z,99578.00
2023-02-07T17:24:13.648Z,99623.00
2023-02-07T17:26:44.194Z,99627.00
2023-02-07T17:29:14.225Z,99620.00
2023-02-07T17:31:41.887Z,99621.00
2023-02-07T17:34:08.832Z,99601.00
2023-02-07T17:36:36.016Z,99632.00
2023-02-07T17:39:03.173Z,99630.00
2023-02-07T17:41:30.618Z,99614.00
2023-02-07T17:43:56.943Z,99627.00
2023-02-07T17:46:26.433Z,99642.00
2023-02-07T17:48:54.512Z,99640.00
2023-02-07T17:51:24.384Z,99626.00
2023-02-07T17:53:51.605Z,99633.00
2023-02-07T17:56:31.474Z,99645.00
2023-02-07T17:59:02.421Z,99617.00
2023-02-07T18:01:32.960Z,99613.00
2023-02-07T18:03:59.228Z,99624.00
2023-02-07T18:06:28.681Z,99647.00
2023-02-07T18:08:57.919Z,99650.00
2023-02-07T18:11:26.422Z,99641.00
2023-02-07T18:13:52.912Z,99625.00
2023-02-07T18:16:23.474Z,99642.00
2023-02-07T18:18:51.505Z,99636.00
2023-02-07T18:21:18.747Z,99642.00
2023-02-07T18:23:45.577Z,99647.00
2023-02-07T18:26:23.179Z,99636.00
2023-02-07T18:28:50.536Z,99623.00
2023-02-07T18:31:22.753Z,99624.00
2023-02-07T18:33:50.969Z,99619.00
2023-02-07T18:36:19.162Z,99616.00
2023-02-07T18:38:47.208Z,99632.00
2023-02-07T18:41:21.944Z,99628.00
2023-02-07T18:43:50.404Z,99617.00
2023-02-07T18:46:21.050Z,99629.00
2023-02-07T18:48:53.487Z,99615.00
2023-02-07T18:51:21.522Z,99644.00
2023-02-07T18:53:54.160Z,99632.00
2023-02-07T18:56:24.783Z,99607.00
2023-02-07T18:58:52.354Z,99636.00
2023-02-07T19:01:20.507Z,99626.00
2023-02-07T19:03:53.728Z,99628.00
2023-02-07T19:06:26.646Z,99634.00
2023-02-07T19:08:55.906Z,99624.00
2023-02-07T19:11:22.505Z,99610.00
2023-02-07T19:13:48.944Z,99621.00
2023-02-07T19:16:19.337Z,99647.00
2023-02-07T19:18:47.292Z,99644.00
2023-02-07T19:21:25.991Z,99637.00
2023-02-07T19:23:54.924Z,99631.00
2023-02-07T19:26:23.256Z,99638.00
2023-02-07T19:28:52.162Z,99628.00
2023-02-07T19:31:19.632Z,99646.00
2023-02-07T19:33:49.860Z,99614.00
2023-02-07T19:36:18.723Z,99631.00
2023-02-07T19:38:47.772Z,99614.00
2023-02-07T19:41:13.915Z,99627.00
2023-02-07T19:43:41.048Z,99640.00
2023-02-07T19:46:07.264Z,99632.00
2023-02-07T19:48:33.502Z,99634.00
2023-02-07T19:51:08.159Z,99633.00
2023-02-07T19:53:34.916Z,99610.00
2023-02-07T19:56:10.508Z,99637.00
2023-02-07T19:58:43.046Z,99641.00
2023-02-07T20:01:10.671Z,99616.00
2023-02-07T20:03:38.613Z,99642.00
2023-02-07T20:06:12.023Z,99617.00
2023-02-07T20:08:40.382Z,99631.00
2023-02-07T20:11:12.959Z,99625.00
2023-02-07T20:13:42.539Z,99603.00
2023-02-07T20:16:13.707Z,99622.00
2023-02-07T20:18:40.107Z,99630.00
2023-02-07T20:21:12.003Z,99626.00
2023-02-07T20:23:39.203Z,99619.00
2023-02-07T20:26:14.657Z,99641.00
2023-02-07T20:28:41.317Z,99617.00
2023-02-07T20:31:10.655Z,99627.00
2023-02-07T20:33:40.255Z,99631.00
2023-02-07T20:36:08.484Z,99635.00
2023-02-07T20:38:34.779Z,99636.00
2023-02-07T20:41:14.738Z,99645.00
2023-02-07T20:43:42.263Z,99647.00
2023-02-07T20:46:12.973Z,99648.00
2023-02-07T20:48:42.606Z,99631.00
2023-02-07T20:51:10.282Z,99650.00
2023-02-07T20:53:43.315Z,99639.00
2023-02-07T20:56:18.686Z,99647.00
2023-02-07T20:58:48.844Z,99627.00
2023-02-07T21:01:22.403Z,99649.00
2023-02-07T21:03:51.606Z,99660.00
2023-02-07T21:06:19.057Z,99648.00
2023-02-07T21:08:45.917Z,99649.00
2023-02-07T21:11:12.301Z,99655.00
2023-02-07T21:13:38.954Z,99634.00
2023-02-07T21:16:07.751Z,99647.00
2023-02-07T21:18:35.067Z,99634.00
2023-02-07T21:21:07.249Z,99649.00
2023-02-07T21:23:34.130Z,99642.00
2023-02-07T21:26:06.764Z,99636.00
2023-02-07T21:28:34.825Z,99651.00
2023-02-07T21:31:08.030Z,99637.00
2023-02-07T21:33:34.345Z,99644.00
2023-02-07T21:36:10.920Z,99636.00
2023-02-07T21:38:39.097Z,99634.00
2023-02-07T21:41:11.038Z,99625.00
2023-02-07T21:43:39.525Z,99623.00
2023-02-07T21:46:17.500Z,99649.00
2023-02-07T21:48:45.999Z,99627.00
2023-02-07T21:51:17.199Z,99618.00
2023-02-07T21:53:44.051Z,99649.00
2023-02-07T21:56:14.074Z,99636.00
2023-02-07T21:58:43.166Z,99648.00
2023-02-07T22:01:16.489Z,99618.00
2023-02-07T22:03:47.093Z,99619.00
2023-02-07T22:06:15.431Z,99579.00
2023-02-07T22:08:49.467Z,99627.00
2023-02-07T22:11:18.053Z,99638.00
2023-02-07T22:13:45.322Z,99633.00
2023-02-07T22:16:14.948Z,99623.00
2023-02-07T22:18:42.170Z,99617.00
2023-02-07T22:21:19.741Z,99623.00
2023-02-07T22:23:49.272Z,99641.00
2023-02-07T22:26:17.045Z,99616.00
2023-02-07T22:28:48.066Z,99628.00
2023-02-07T22:31:24.605Z,99627.00
2023-02-07T22:33:53.292Z,99624.00
2023-02-07T22:36:26.207Z,99632.00
2023-02-07T22:38:53.637Z,99616.00
2023-02-07T22:41:21.258Z,99628.00
2023-02-07T22:43:49.404Z,99629.00
2023-02-07T22:46:19.273Z,99627.00
2023-02-07T22:48:47.380Z,99625.00
2023-02-07T22:51:28.492Z,99630.00
2023-02-07T22:54:05.638Z,99625.00
2023-02-07T22:56:34.604Z,99621.00
2023-02-07T22:59:01.590Z,99598.00
2023-02-07T23:01:33.558Z,99612.00
2023-02-07T23:04:02.924Z,99617.00
2023-02-07T23:06:31.669Z,99616.00
2023-02-07T23:08:58.186Z,99620.00
2023-02-07T23:11:24.465Z,99626.00
2023-02-07T23:13:52.593Z,99613.00
2023-02-07T23:16:23.162Z,99618.00
2023-02-07T23:18:52.683Z,99606.00
2023-02-07T23:21:21.131Z,99631.00
2023-02-07T23:23:47.744Z,99642.00
2023-02-07T23:26:21.719Z,99621.00
2023-02-07T23:28:48.408Z,99613.00
2023-02-07T23:31:18.588Z,99613.00
2023-02-07T23:33:45.197Z,99639.00
2023-02-07T23:36:12.274Z,99624.00
2023-02-07T23:38:39.196Z,99622.00
2023-02-07T23:41:06.704Z,99649.00
2023-02-07T23:43:34.061Z,99629.00
2023-02-07T23:46:00.287Z,99628.00
2023-02-07T23:48:26.516Z,99645.00
2023-02-07T23:50:55.545Z,99645.00
2023-02-07T23:53:22.794Z,99636.00
2023-02-07T23:55:51.991Z,99626.00
2023-02-07T23:58:18.240Z,99609.00
